createdAt,value
2023-06-07T00:02:08.011Z,99435.72
2023-06-07T00:04:36.766Z,99440.34
2023-06-07T00:07:04.122Z,99437.91
2023-06-07T00:09:31.445Z,99432.75
2023-06-07T00:11:58.453Z,99438.47
2023-06-07T00:14:25.700Z,99433.31
2023-06-07T00:16:54.378Z,99427.84
2023-06-07T00:19:26.459Z,99435.47
2023-06-07T00:21:53.661Z,99427.88
2023-06-07T00:24:21.175Z,99429.50
2023-06-07T00:26:48.140Z,99439.84
2023-06-07T00:29:15.579Z,99441.75
2023-06-07T00:31:42.544Z,99431.44
2023-06-07T00:34:09.941Z,99435.25
2023-06-07T00:36:38.249Z,99432.78
2023-06-07T00:39:05.309Z,99437.69
2023-06-07T00:41:32.310Z,99429.00
2023-06-07T00:43:59.797Z,99434.72
2023-06-07T00:46:28.726Z,99440.44
2023-06-07T00:48:57.097Z,99440.16
2023-06-07T00:51:24.241Z,99445.84
2023-06-07T00:53:52.761Z,99439.06
2023-06-07T00:56:20.521Z,99437.97
2023-06-07T00:58:48.123Z,99444.50
2023-06-07T01:01:19.143Z,99439.06
2023-06-07T01:03:46.281Z,99436.63
2023-06-07T01:06:14.993Z,99444.50
2023-06-07T01:08:42.864Z,99447.50
2023-06-07T01:11:11.656Z,99444.78
2023-06-07T01:13:40.031Z,99444.78
2023-06-07T01:16:09.480Z,99442.88
2023-06-07T01:18:39.032Z,99445.59
2023-06-07T01:21:06.515Z,99446.41
2023-06-07T01:23:33.993Z,99442.88
2023-06-07T01:26:01.811Z,99442.59
2023-06-07T01:28:32.188Z,99433.63
2023-06-07T01:31:00.868Z,99438.78
2023-06-07T01:33:33.517Z,99436.06
2023-06-07T01:36:02.757Z,99440.41
2023-06-07T01:38:31.393Z,99431.97
2023-06-07T01:40:59.107Z,99436.34
2023-06-07T01:43:27.205Z,99431.47
2023-06-07T01:45:54.481Z,99437.44
2023-06-07T01:48:21.969Z,99431.72
2023-06-07T01:50:49.023Z,99427.09
2023-06-07T01:53:16.419Z,99435.50
2023-06-07T01:55:43.601Z,99434.44
2023-06-07T01:58:21.319Z,99438.50
2023-06-07T02:00:57.492Z,99438.22
2023-06-07T02:03:30.237Z,99438.75
2023-06-07T02:06:00.852Z,99438.22
2023-06-07T02:08:30.870Z,99441.47
2023-06-07T02:10:58.807Z,99438.19
2023-06-07T02:13:27.974Z,99440.34
2023-06-07T02:15:55.122Z,99434.66
2023-06-07T02:18:22.142Z,99445.28
2023-06-07T02:20:53.357Z,99436.53
2023-06-07T02:23:20.763Z,99439.53
2023-06-07T02:25:47.711Z,99431.91
2023-06-07T02:28:17.424Z,99439.50
2023-06-07T02:30:45.493Z,99438.69
2023-06-07T02:33:15.083Z,99436.22
2023-06-07T02:35:45.015Z,99434.84
2023-06-07T02:38:11.867Z,99427.50
2023-06-07T02:40:39.032Z,99434.03
2023-06-07T02:43:05.918Z,99430.47
2023-06-07T02:45:32.833Z,99423.06
2023-06-07T02:47:59.798Z,99433.13
2023-06-07T02:50:27.719Z,99428.75
2023-06-07T02:52:56.583Z,99432.53
2023-06-07T02:55:23.544Z,99437.44
2023-06-07T02:57:50.425Z,99432.53
2023-06-07T03:00:20.195Z,99430.06
2023-06-07T03:02:52.898Z,99439.28
2023-06-07T03:05:20.013Z,99436.53
2023-06-07T03:07:52.282Z,99430.22
2023-06-07T03:10:20.183Z,99438.66
2023-06-07T03:12:47.549Z,99439.47
2023-06-07T03:15:14.356Z,99436.41
2023-06-07T03:17:44.565Z,99438.28
2023-06-07T03:20:12.896Z,99432.78
2023-06-07T03:22:41.925Z,99440.94
2023-06-07T03:25:12.374Z,99428.06
2023-06-07T03:27:39.562Z,99428.84
2023-06-07T03:30:20.766Z,99438.63
2023-06-07T03:32:48.976Z,99435.28
2023-06-07T03:35:16.827Z,99434.41
2023-06-07T03:37:44.173Z,99432.69
2023-06-07T03:40:11.778Z,99435.91
2023-06-07T03:42:38.845Z,99436.09
2023-06-07T03:45:07.062Z,99435.75
2023-06-07T03:47:34.789Z,99432.69
2023-06-07T03:50:02.612Z,99436.13
2023-06-07T03:52:33.846Z,99424.56
2023-06-07T03:55:00.987Z,99431.03
2023-06-07T03:57:29.481Z,99422.69
2023-06-07T03:59:57.708Z,99428.31
2023-06-07T04:02:25.043Z,99432.06
2023-06-07T04:04:53.976Z,99427.31
2023-06-07T04:07:21.524Z,99432.13
2023-06-07T04:09:49.695Z,99430.97
2023-06-07T04:12:18.649Z,99432.56
2023-06-07T04:14:48.071Z,99431.38
2023-06-07T04:17:15.008Z,99432.63
2023-06-07T04:19:50.880Z,99438.53
2023-06-07T04:22:31.785Z,99434.88
2023-06-07T04:24:59.156Z,99430.34
2023-06-07T04:27:31.026Z,99440.31
2023-06-07T04:30:04.106Z,99433.88
2023-06-07T04:32:34.811Z,99431.88
2023-06-07T04:35:03.940Z,99429.56
2023-06-07T04:37:32.507Z,99425.00
2023-06-07T04:39:59.951Z,99423.22
2023-06-07T04:42:28.659Z,99426.91
2023-06-07T04:45:01.678Z,99421.75
2023-06-07T04:47:31.230Z,99424.84
2023-06-07T04:49:58.186Z,99424.13
2023-06-07T04:52:28.304Z,99431.34
2023-06-07T04:55:01.215Z,99425.97
2023-06-07T04:57:31.237Z,99419.16
2023-06-07T04:59:59.717Z,99422.22
2023-06-07T05:02:40.429Z,99420.38
2023-06-07T05:05:07.798Z,99421.56
2023-06-07T05:07:38.156Z,99420.84
2023-06-07T05:10:07.964Z,99414.06
2023-06-07T05:12:35.399Z,99419.00
2023-06-07T05:15:02.591Z,99417.16
2023-06-07T05:17:30.867Z,99415.91
2023-06-07T05:19:57.782Z,99414.66
2023-06-07T05:22:24.904Z,99416.16
2023-06-07T05:24:52.554Z,99414.91
2023-06-07T05:27:19.474Z,99420.78
2023-06-07T05:29:46.438Z,99412.09
2023-06-07T05:32:13.982Z,99410.03
2023-06-07T05:34:40.899Z,99407.66
2023-06-07T05:37:08.223Z,99401.75
2023-06-07T05:39:35.378Z,99405.16
2023-06-07T05:42:02.136Z,99402.78
2023-06-07T05:44:29.222Z,99401.53
2023-06-07T05:46:56.585Z,99397.03
2023-06-07T05:49:23.559Z,99402.09
2023-06-07T05:51:50.677Z,99399.38
2023-06-07T05:54:17.601Z,99408.44
2023-06-07T05:56:44.466Z,99399.13
2023-06-07T05:59:11.456Z,99405.13
2023-06-07T06:01:38.458Z,99397.53
2023-06-07T06:04:05.300Z,99395.44
2023-06-07T06:06:32.109Z,99393.88
2023-06-07T06:09:00.824Z,99395.81
2023-06-07T06:11:27.884Z,99402.31
2023-06-07T06:13:54.920Z,99395.88
2023-06-07T06:16:22.014Z,99391.81
2023-06-07T06:18:49.052Z,99396.38
2023-06-07T06:21:16.121Z,99392.66
2023-06-07T06:23:43.096Z,99413.88
2023-06-07T06:26:09.974Z,99392.66
2023-06-07T06:28:36.830Z,99409.34
2023-06-07T06:31:05.192Z,99403.19
2023-06-07T06:33:32.241Z,99400.75
2023-06-07T06:36:00.742Z,99390.06
2023-06-07T06:38:27.929Z,99392.50
2023-06-07T06:40:55.067Z,99398.00
2023-06-07T06:43:22.461Z,99380.38
2023-06-07T06:45:54.642Z,99391.03
2023-06-07T06:48:21.540Z,99391.22
2023-06-07T06:50:50.516Z,99380.19
2023-06-07T06:53:17.378Z,99393.63
2023-06-07T06:55:44.275Z,99399.63
2023-06-07T06:58:11.187Z,99386.34
2023-06-07T07:00:40.787Z,99381.31
2023-06-07T07:03:08.233Z,99373.72
2023-06-07T07:05:35.184Z,99377.91
2023-06-07T07:08:03.868Z,99372.28
2023-06-07T07:10:30.726Z,99374.03
2023-06-07T07:12:57.558Z,99374.19
2023-06-07T07:15:32.636Z,99379.06
2023-06-07T07:17:59.650Z,99380.16
2023-06-07T07:20:26.669Z,99376.91
2023-06-07T07:22:53.828Z,99372.41
2023-06-07T07:25:20.848Z,99362.69
2023-06-07T07:27:47.748Z,99363.78
2023-06-07T07:30:15.142Z,99370.44
2023-06-07T07:32:42.022Z,99356.31
2023-06-07T07:35:09.073Z,99357.09
2023-06-07T07:37:36.418Z,99368.56
2023-06-07T07:40:05.993Z,99358.31
2023-06-07T07:42:32.966Z,99361.50
2023-06-07T07:44:59.868Z,99365.50
2023-06-07T07:47:26.928Z,99352.16
2023-06-07T07:49:53.769Z,99351.94
2023-06-07T07:52:22.477Z,99346.31
2023-06-07T07:54:49.642Z,99352.84
2023-06-07T07:57:16.768Z,99354.91
2023-06-07T07:59:44.624Z,99355.88
2023-06-07T08:02:11.756Z,99338.44
2023-06-07T08:04:38.711Z,99344.81
2023-06-07T08:07:05.830Z,99336.13
2023-06-07T08:09:32.713Z,99336.47
2023-06-07T08:11:59.474Z,99338.13
2023-06-07T08:14:26.383Z,99349.47
2023-06-07T08:16:53.231Z,99356.00
2023-06-07T08:19:20.299Z,99335.22
2023-06-07T08:21:48.686Z,99336.50
2023-06-07T08:24:15.830Z,99331.72
2023-06-07T08:26:46.118Z,99334.16
2023-06-07T08:29:13.038Z,99338.00
2023-06-07T08:31:44.968Z,99335.81
2023-06-07T08:34:11.930Z,99320.13
2023-06-07T08:36:39.567Z,99330.84
2023-06-07T08:39:06.624Z,99328.94
2023-06-07T08:41:33.515Z,99326.13
2023-06-07T08:44:00.427Z,99320.47
2023-06-07T08:46:31.986Z,99318.72
2023-06-07T08:48:59.704Z,99310.56
2023-06-07T08:51:27.262Z,99315.16
2023-06-07T08:53:59.310Z,99309.59
2023-06-07T08:56:26.502Z,99316.78
2023-06-07T08:58:57.095Z,99329.00
2023-06-07T09:01:24.998Z,99312.00
2023-06-07T09:03:53.186Z,99294.25
2023-06-07T09:06:21.220Z,99300.84
2023-06-07T09:08:48.628Z,99291.78
2023-06-07T09:11:16.402Z,99286.25
2023-06-07T09:13:45.042Z,99305.91
2023-06-07T09:16:14.540Z,99313.56
2023-06-07T09:18:43.053Z,99288.53
2023-06-07T09:21:21.456Z,99311.50
2023-06-07T09:23:48.588Z,99285.66
2023-06-07T09:26:16.428Z,99292.69
2023-06-07T09:28:43.713Z,99305.47
2023-06-07T09:31:10.695Z,99282.44
2023-06-07T09:33:37.633Z,99281.28
2023-06-07T09:36:09.408Z,99294.81
2023-06-07T09:38:36.655Z,99287.88
2023-06-07T09:41:05.330Z,99284.63
2023-06-07T09:43:48.595Z,99284.41
2023-06-07T09:46:16.311Z,99280.44
2023-06-07T09:48:47.159Z,99277.66
2023-06-07T09:51:14.169Z,99280.66
2023-06-07T09:54:02.443Z,99286.84
2023-06-07T09:56:29.481Z,99284.75
2023-06-07T09:59:10.017Z,99267.13
2023-06-07T10:01:39.377Z,99264.84
2023-06-07T10:04:07.387Z,99266.25
2023-06-07T10:06:39.842Z,99260.88
2023-06-07T10:09:07.114Z,99262.03
2023-06-07T10:11:34.480Z,99251.19
2023-06-07T10:14:21.862Z,99250.22
2023-06-07T10:16:52.852Z,99248.94
2023-06-07T10:19:31.991Z,99242.34
2023-06-07T10:21:59.501Z,99239.19
2023-06-07T10:24:31.326Z,99234.69
2023-06-07T10:27:06.363Z,99237.78
2023-06-07T10:29:43.258Z,99231.63
2023-06-07T10:32:12.116Z,99225.00
2023-06-07T10:34:40.055Z,99250.47
2023-06-07T10:37:08.643Z,99251.13
2023-06-07T10:39:36.546Z,99224.03
2023-06-07T10:42:03.693Z,99231.06
2023-06-07T10:44:31.359Z,99235.75
2023-06-07T10:47:17.166Z,99220.97
2023-06-07T10:49:44.622Z,99221.28
2023-06-07T10:52:15.880Z,99209.47
2023-06-07T10:54:43.545Z,99213.94
2023-06-07T10:57:10.917Z,99222.25
2023-06-07T10:59:41.324Z,99207.41
2023-06-07T11:02:24.972Z,99207.84
2023-06-07T11:04:53.749Z,99209.13
2023-06-07T11:07:22.254Z,99194.03
2023-06-07T11:10:09.423Z,99184.09
2023-06-07T11:12:36.963Z,99194.84
2023-06-07T11:15:19.886Z,99183.31
2023-06-07T11:17:54.640Z,99183.16
2023-06-07T11:20:37.136Z,99208.81
2023-06-07T11:23:23.748Z,99184.03
2023-06-07T11:25:53.181Z,99193.44
2023-06-07T11:28:23.627Z,99179.69
2023-06-07T11:30:51.855Z,99171.41
2023-06-07T11:33:19.608Z,99188.94
2023-06-07T11:35:47.065Z,99179.28
2023-06-07T11:38:13.934Z,99177.31
2023-06-07T11:40:40.940Z,99182.13
2023-06-07T11:43:09.889Z,99170.63
2023-06-07T11:45:37.278Z,99160.09
2023-06-07T11:48:04.345Z,99156.31
2023-06-07T11:50:31.741Z,99152.16
2023-06-07T11:52:58.574Z,99152.75
2023-06-07T11:55:25.776Z,99169.47
2023-06-07T11:57:55.347Z,99161.25
2023-06-07T12:00:22.834Z,99172.34
2023-06-07T12:02:54.270Z,99170.28
2023-06-07T12:05:31.287Z,99164.00
2023-06-07T12:08:00.981Z,99162.59
2023-06-07T12:10:28.692Z,99153.97
2023-06-07T12:13:07.470Z,99153.72
2023-06-07T12:15:35.616Z,99147.75
2023-06-07T12:18:03.892Z,99142.25
2023-06-07T12:20:30.935Z,99146.56
2023-06-07T12:23:07.022Z,99132.88
2023-06-07T12:25:35.981Z,99137.50
2023-06-07T12:28:07.496Z,99146.25
2023-06-07T12:30:35.210Z,99133.59
2023-06-07T12:33:05.188Z,99139.28
2023-06-07T12:35:46.336Z,99140.59
2023-06-07T12:38:14.052Z,99128.69
2023-06-07T12:40:41.127Z,99123.56
2023-06-07T12:43:08.005Z,99132.84
2023-06-07T12:45:35.892Z,99138.81
2023-06-07T12:48:02.726Z,99128.69
2023-06-07T12:50:30.682Z,99108.91
2023-06-07T12:52:57.900Z,99120.94
2023-06-07T12:55:25.003Z,99115.75
2023-06-07T12:57:51.938Z,99116.41
2023-06-07T13:00:18.949Z,99134.44
2023-06-07T13:02:46.091Z,99133.78
2023-06-07T13:05:13.226Z,99119.66
2023-06-07T13:07:41.137Z,99131.69
2023-06-07T13:10:12.013Z,99109.69
2023-06-07T13:12:40.040Z,99124.38
2023-06-07T13:15:07.321Z,99113.16
2023-06-07T13:17:34.642Z,99095.75
2023-06-07T13:20:01.615Z,99092.94
2023-06-07T13:22:32.593Z,99105.56
2023-06-07T13:24:59.674Z,99095.28
2023-06-07T13:27:28.427Z,99089.34
2023-06-07T13:29:56.704Z,99111.03
2023-06-07T13:32:23.786Z,99095.13
2023-06-07T13:34:50.711Z,99078.88
2023-06-07T13:37:17.694Z,99099.31
2023-06-07T13:39:44.494Z,99126.09
2023-06-07T13:42:11.409Z,99089.63
2023-06-07T13:44:39.973Z,99098.78
2023-06-07T13:47:07.338Z,99087.31
2023-06-07T13:49:36.045Z,99085.78
2023-06-07T13:52:03.532Z,99127.69
2023-06-07T13:54:33.158Z,99092.44
2023-06-07T13:57:00.753Z,99074.63
2023-06-07T13:59:29.193Z,99095.47
2023-06-07T14:01:59.733Z,99100.72
2023-06-07T14:04:26.989Z,99087.97
2023-06-07T14:06:54.178Z,99077.72
2023-06-07T14:09:21.006Z,99089.94
2023-06-07T14:11:47.851Z,99083.19
2023-06-07T14:14:14.673Z,99083.53
2023-06-07T14:16:41.501Z,99091.88
2023-06-07T14:19:08.410Z,99074.56
2023-06-07T14:21:35.824Z,99090.63
2023-06-07T14:24:02.904Z,99087.88
2023-06-07T14:26:29.764Z,99082.56
2023-06-07T14:28:56.574Z,99093.91
2023-06-07T14:31:23.779Z,99092.47
2023-06-07T14:33:53.655Z,99092.97
2023-06-07T14:36:21.280Z,99087.78
2023-06-07T14:38:48.141Z,99081.34
2023-06-07T14:41:14.965Z,99075.78
2023-06-07T14:43:42.030Z,99077.78
2023-06-07T14:46:09.117Z,99074.59
2023-06-07T14:48:36.316Z,99072.56
2023-06-07T14:51:03.183Z,99082.53
2023-06-07T14:53:29.976Z,99117.88
2023-06-07T14:55:56.896Z,99091.91
2023-06-07T14:58:23.625Z,99091.19
2023-06-07T15:00:50.924Z,99084.78
2023-06-07T15:03:17.892Z,99094.59
2023-06-07T15:05:44.947Z,99084.72
2023-06-07T15:08:11.707Z,99078.91
2023-06-07T15:10:38.567Z,99079.69
2023-06-07T15:13:05.481Z,99082.38
2023-06-07T15:15:32.546Z,99085.84
2023-06-07T15:17:59.553Z,99086.47
2023-06-07T15:20:27.769Z,99085.50
2023-06-07T15:22:54.605Z,99091.00
2023-06-07T15:25:21.474Z,99089.75
2023-06-07T15:27:48.327Z,99085.00
2023-06-07T15:30:15.646Z,99069.16
2023-06-07T15:32:42.426Z,99077.09
2023-06-07T15:35:12.537Z,99075.91
2023-06-07T15:37:39.900Z,99097.75
2023-06-07T15:40:07.471Z,99088.69
2023-06-07T15:42:34.474Z,99091.63
2023-06-07T15:45:01.257Z,99090.16
2023-06-07T15:47:28.998Z,99084.72
2023-06-07T15:49:56.226Z,99101.56
2023-06-07T15:52:23.281Z,99095.38
2023-06-07T15:54:50.324Z,99103.13
2023-06-07T15:57:17.173Z,99102.09
2023-06-07T15:59:43.930Z,99109.13
2023-06-07T16:02:10.783Z,99106.66
2023-06-07T16:04:37.685Z,99116.09
2023-06-07T16:07:05.318Z,99118.06
2023-06-07T16:09:32.272Z,99120.88
2023-06-07T16:11:59.130Z,99140.91
2023-06-07T16:14:26.123Z,99134.44
2023-06-07T16:16:53.498Z,99158.59
2023-06-07T16:19:20.358Z,99191.16
2023-06-07T16:21:47.179Z,99198.03
2023-06-07T16:24:15.274Z,99208.44
2023-06-07T16:26:42.314Z,99216.41
2023-06-07T16:29:09.119Z,99179.34
2023-06-07T16:31:36.181Z,99143.72
2023-06-07T16:34:03.099Z,99131.25
2023-06-07T16:36:30.074Z,99127.22
2023-06-07T16:38:56.867Z,99129.66
2023-06-07T16:41:29.655Z,99126.09
2023-06-07T16:43:56.391Z,99120.94
2023-06-07T16:46:23.684Z,99117.69
2023-06-07T16:48:50.530Z,99126.56
2023-06-07T16:51:17.371Z,99210.38
2023-06-07T16:53:44.302Z,99236.31
2023-06-07T16:56:11.176Z,99248.91
2023-06-07T16:58:38.118Z,99236.38
2023-06-07T17:01:05.106Z,99246.34
2023-06-07T17:03:32.101Z,99229.38
2023-06-07T17:05:58.996Z,99209.31
2023-06-07T17:08:26.150Z,99187.91
2023-06-07T17:10:52.972Z,99173.59
2023-06-07T17:13:20.235Z,99151.22
2023-06-07T17:15:47.224Z,99142.56
2023-06-07T17:18:14.291Z,99142.69
2023-06-07T17:20:41.681Z,99142.50
2023-06-07T17:23:08.558Z,99130.75
2023-06-07T17:25:35.881Z,99133.97
2023-06-07T17:28:03.040Z,99133.38
2023-06-07T17:30:30.490Z,99153.03
2023-06-07T17:32:57.457Z,99155.94
2023-06-07T17:35:24.533Z,99155.59
2023-06-07T17:37:53.541Z,99153.59
2023-06-07T17:40:20.448Z,99167.59
2023-06-07T17:42:47.224Z,99156.63
2023-06-07T17:45:14.110Z,99149.16
2023-06-07T17:47:54.184Z,99160.34
2023-06-07T17:50:32.764Z,99153.47
2023-06-07T17:53:00.190Z,99164.34
2023-06-07T17:55:27.195Z,99156.25
2023-06-07T17:57:54.083Z,99160.41
2023-06-07T18:00:21.258Z,99161.84
2023-06-07T18:02:48.070Z,99159.69
2023-06-07T18:05:15.034Z,99159.19
2023-06-07T18:07:42.411Z,99162.53
2023-06-07T18:10:09.591Z,99160.41
2023-06-07T18:12:36.489Z,99161.66
2023-06-07T18:15:06.306Z,99160.13
2023-06-07T18:17:33.099Z,99158.63
2023-06-07T18:19:59.887Z,99163.06
2023-06-07T18:22:26.767Z,99164.50
2023-06-07T18:24:53.617Z,99163.19
2023-06-07T18:27:20.552Z,99166.22
2023-06-07T18:29:47.382Z,99168.16
2023-06-07T18:32:14.232Z,99168.97
2023-06-07T18:34:41.112Z,99173.31
2023-06-07T18:37:08.025Z,99173.81
2023-06-07T18:39:34.997Z,99178.19
2023-06-07T18:42:01.869Z,99174.03
2023-06-07T18:44:30.246Z,99173.41
2023-06-07T18:46:57.263Z,99172.78
2023-06-07T18:49:24.116Z,99179.47
2023-06-07T18:51:51.013Z,99177.47
2023-06-07T18:54:17.796Z,99174.31
2023-06-07T18:56:44.960Z,99177.53
2023-06-07T18:59:11.935Z,99179.66
2023-06-07T19:01:50.667Z,99177.72
2023-06-07T19:04:19.418Z,99179.34
2023-06-07T19:06:49.578Z,99184.03
2023-06-07T19:09:18.603Z,99188.69
2023-06-07T19:11:46.198Z,99187.38
2023-06-07T19:14:13.231Z,99190.09
2023-06-07T19:16:40.596Z,99193.66
2023-06-07T19:19:07.447Z,99189.50
2023-06-07T19:21:34.246Z,99196.31
2023-06-07T19:24:04.190Z,99201.16
2023-06-07T19:26:31.356Z,99200.56
2023-06-07T19:29:02.508Z,99216.69
2023-06-07T19:31:29.478Z,99204.22
2023-06-07T19:33:56.452Z,99202.19
2023-06-07T19:36:23.237Z,99205.16
2023-06-07T19:38:54.164Z,99197.13
2023-06-07T19:41:22.066Z,99198.66
2023-06-07T19:43:48.871Z,99206.97
2023-06-07T19:46:15.788Z,99197.25
2023-06-07T19:48:42.644Z,99202.78
2023-06-07T19:51:10.169Z,99199.34
2023-06-07T19:53:37.119Z,99204.63
2023-06-07T19:56:04.743Z,99206.34
2023-06-07T19:58:31.802Z,99215.16
2023-06-07T20:00:58.732Z,99213.03
2023-06-07T20:03:25.566Z,99208.66
2023-06-07T20:05:52.403Z,99208.66
2023-06-07T20:08:19.199Z,99215.47
2023-06-07T20:10:46.023Z,99215.16
2023-06-07T20:13:17.880Z,99232.56
2023-06-07T20:15:45.522Z,99228.94
2023-06-07T20:18:12.402Z,99226.41
2023-06-07T20:20:40.833Z,99210.69
2023-06-07T20:23:07.914Z,99191.47
2023-06-07T20:25:34.968Z,99189.75
2023-06-07T20:28:01.956Z,99205.53
2023-06-07T20:30:28.842Z,99205.75
2023-06-07T20:32:55.730Z,99204.94
2023-06-07T20:35:22.842Z,99210.41
2023-06-07T20:37:50.478Z,99207.97
2023-06-07T20:40:17.398Z,99208.91
2023-06-07T20:42:45.205Z,99209.81
2023-06-07T20:45:13.652Z,99202.50
2023-06-07T20:47:40.897Z,99208.06
2023-06-07T20:50:09.585Z,99200.78
2023-06-07T20:52:36.563Z,99199.75
2023-06-07T20:55:03.936Z,99215.47
2023-06-07T20:57:34.221Z,99210.38
2023-06-07T21:00:05.394Z,99203.38
2023-06-07T21:02:36.560Z,99207.63
2023-06-07T21:05:03.629Z,99212.06
2023-06-07T21:07:30.881Z,99211.84
2023-06-07T21:09:57.720Z,99214.88
2023-06-07T21:12:24.640Z,99215.50
2023-06-07T21:14:53.523Z,99216.91
2023-06-07T21:17:20.306Z,99223.47
2023-06-07T21:19:48.562Z,99213.13
2023-06-07T21:22:15.286Z,99219.16
2023-06-07T21:24:42.193Z,99215.09
2023-06-07T21:27:11.110Z,99223.91
2023-06-07T21:29:38.112Z,99225.00
2023-06-07T21:32:05.333Z,99221.78
2023-06-07T21:34:32.079Z,99225.81
2023-06-07T21:36:58.886Z,99219.56
2023-06-07T21:39:25.739Z,99221.78
2023-06-07T21:41:52.818Z,99226.72
2023-06-07T21:44:19.781Z,99223.78
2023-06-07T21:46:46.766Z,99219.72
2023-06-07T21:49:13.773Z,99223.88
2023-06-07T21:51:40.856Z,99217.88
2023-06-07T21:54:09.155Z,99224.75
2023-06-07T21:56:36.150Z,99228.56
2023-06-07T21:59:02.912Z,99223.72
2023-06-07T22:01:29.845Z,99227.03
2023-06-07T22:03:56.853Z,99227.63
2023-06-07T22:06:23.657Z,99213.75
2023-06-07T22:08:50.869Z,99222.25
2023-06-07T22:11:18.054Z,99213.03
2023-06-07T22:13:45.922Z,99219.38
2023-06-07T22:16:13.859Z,99218.34
2023-06-07T22:18:41.943Z,99223.56
2023-06-07T22:21:08.880Z,99220.91
2023-06-07T22:23:35.844Z,99221.00
2023-06-07T22:26:02.971Z,99226.25
2023-06-07T22:28:31.010Z,99226.81
2023-06-07T22:31:01.037Z,99220.34
2023-06-07T22:33:27.907Z,99219.00
2023-06-07T22:35:58.680Z,99225.06
2023-06-07T22:38:25.895Z,99225.63
2023-06-07T22:40:53.402Z,99223.47
2023-06-07T22:43:20.274Z,99225.16
2023-06-07T22:45:47.400Z,99221.41
2023-06-07T22:48:16.948Z,99228.56
2023-06-07T22:50:43.829Z,99226.13
2023-06-07T22:53:13.531Z,99226.41
2023-06-07T22:55:41.813Z,99224.28
2023-06-07T22:58:08.830Z,99226.47
2023-06-07T23:00:36.354Z,99225.66
2023-06-07T23:03:05.027Z,99236.88
2023-06-07T23:05:32.039Z,99228.13
2023-06-07T23:07:58.897Z,99228.44
2023-06-07T23:10:37.237Z,99229.50
2023-06-07T23:13:18.446Z,99230.91
2023-06-07T23:15:46.395Z,99233.94
2023-06-07T23:18:19.543Z,99236.13
2023-06-07T23:20:46.890Z,99235.63
2023-06-07T23:23:14.009Z,99237.31
2023-06-07T23:25:41.267Z,99236.78
2023-06-07T23:28:08.263Z,99234.63
2023-06-07T23:30:35.683Z,99240.38
2023-06-07T23:33:03.242Z,99237.44
2023-06-07T23:35:30.106Z,99234.44
2023-06-07T23:37:57.034Z,99233.09
2023-06-07T23:40:23.890Z,99238.31
2023-06-07T23:42:53.619Z,99239.72
2023-06-07T23:45:25.638Z,99241.09
2023-06-07T23:47:52.574Z,99244.41
2023-06-07T23:50:19.417Z,99245.28
2023-06-07T23:52:46.355Z,99246.66
2023-06-07T23:55:14.506Z,99244.53
2023-06-07T23:57:41.845Z,99247.84
